sensor_id;sensor_type;location;lat;lon;timestamp;P1;durP1;ratioP1;P2;durP2;ratioP2
72119;SDS011;59993;53.052;18.576;2022-07-23T00:02:21;18.13;;;11.83;;
72119;SDS011;59993;53.052;18.576;2022-07-23T00:04:46;21.53;;;11.87;;
72119;SDS011;59993;53.052;18.576;2022-07-23T00:07:12;17.30;;;11.63;;
72119;SDS011;59993;53.052;18.576;2022-07-23T00:09:37;18.70;;;10.93;;
72119;SDS011;59993;53.052;18.576;2022-07-23T00:12:03;17.03;;;11.30;;
72119;SDS011;59993;53.052;18.576;2022-07-23T00:14:29;19.95;;;11.43;;
72119;SDS011;59993;53.052;18.576;2022-07-23T00:16:54;15.83;;;10.00;;
72119;SDS011;59993;53.052;18.576;2022-07-23T00:19:20;17.10;;;10.77;;
72119;SDS011;59993;53.052;18.576;2022-07-23T00:21:45;19.00;;;10.83;;
72119;SDS011;59993;53.052;18.576;2022-07-23T00:24:11;17.70;;;11.10;;
72119;SDS011;59993;53.052;18.576;2022-07-23T00:26:36;18.67;;;11.60;;
72119;SDS011;59993;53.052;18.576;2022-07-23T00:29:02;20.52;;;12.15;;
72119;SDS011;59993;53.052;18.576;2022-07-23T00:31:27;18.90;;;11.83;;
72119;SDS011;59993;53.052;18.576;2022-07-23T00:33:52;20.20;;;12.17;;
72119;SDS011;59993;53.052;18.576;2022-07-23T00:36:21;20.05;;;12.48;;
72119;SDS011;59993;53.052;18.576;2022-07-23T00:38:48;21.42;;;12.15;;
72119;SDS011;59993;53.052;18.576;2022-07-23T00:41:14;19.40;;;12.00;;
72119;SDS011;59993;53.052;18.576;2022-07-23T00:43:40;18.50;;;11.90;;
72119;SDS011;59993;53.052;18.576;2022-07-23T00:46:05;22.23;;;13.30;;
72119;SDS011;59993;53.052;18.576;2022-07-23T00:48:31;21.85;;;13.52;;
72119;SDS011;59993;53.052;18.576;2022-07-23T00:50:56;25.70;;;13.23;;
72119;SDS011;59993;53.052;18.576;2022-07-23T00:53:22;21.57;;;12.90;;
72119;SDS011;59993;53.052;18.576;2022-07-23T00:55:48;19.10;;;12.32;;
72119;SDS011;59993;53.052;18.576;2022-07-23T00:58:14;21.50;;;12.93;;
72119;SDS011;59993;53.052;18.576;2022-07-23T01:00:40;21.55;;;13.57;;
72119;SDS011;59993;53.052;18.576;2022-07-23T01:03:06;16.77;;;11.20;;
72119;SDS011;59993;53.052;18.576;2022-07-23T01:05:32;19.10;;;11.20;;
72119;SDS011;59993;53.052;18.576;2022-07-23T01:07:58;24.13;;;11.93;;
72119;SDS011;59993;53.052;18.576;2022-07-23T01:10:24;18.27;;;11.15;;
72119;SDS011;59993;53.052;18.576;2022-07-23T01:12:56;17.85;;;10.82;;
72119;SDS011;59993;53.052;18.576;2022-07-23T01:15:23;20.45;;;12.55;;
72119;SDS011;59993;53.052;18.576;2022-07-23T01:17:48;19.60;;;11.27;;
72119;SDS011;59993;53.052;18.576;2022-07-23T01:20:14;20.75;;;11.50;;
72119;SDS011;59993;53.052;18.576;2022-07-23T01:22:40;22.73;;;12.80;;
72119;SDS011;59993;53.052;18.576;2022-07-23T01:25:05;18.93;;;11.97;;
72119;SDS011;59993;53.052;18.576;2022-07-23T01:27:31;21.13;;;12.60;;
72119;SDS011;59993;53.052;18.576;2022-07-23T01:29:57;21.10;;;12.93;;
72119;SDS011;59993;53.052;18.576;2022-07-23T01:32:24;18.70;;;11.70;;
72119;SDS011;59993;53.052;18.576;2022-07-23T01:34:50;18.20;;;11.87;;
72119;SDS011;59993;53.052;18.576;2022-07-23T01:37:15;20.37;;;12.37;;
72119;SDS011;59993;53.052;18.576;2022-07-23T01:39:40;20.93;;;12.60;;
72119;SDS011;59993;53.052;18.576;2022-07-23T01:42:06;18.10;;;11.53;;
72119;SDS011;59993;53.052;18.576;2022-07-23T01:44:32;18.60;;;12.38;;
72119;SDS011;59993;53.052;18.576;2022-07-23T01:46:57;21.83;;;13.10;;
72119;SDS011;59993;53.052;18.576;2022-07-23T01:49:23;19.27;;;12.18;;
72119;SDS011;59993;53.052;18.576;2022-07-23T01:51:48;23.53;;;12.87;;
72119;SDS011;59993;53.052;18.576;2022-07-23T01:54:26;18.33;;;11.45;;
72119;SDS011;59993;53.052;18.576;2022-07-23T01:56:56;20.00;;;11.97;;
72119;SDS011;59993;53.052;18.576;2022-07-23T01:59:22;23.20;;;10.32;;
72119;SDS011;59993;53.052;18.576;2022-07-23T02:01:48;22.30;;;12.38;;
72119;SDS011;59993;53.052;18.576;2022-07-23T02:04:16;24.02;;;11.63;;
72119;SDS011;59993;53.052;18.576;2022-07-23T02:06:42;18.00;;;12.02;;
72119;SDS011;59993;53.052;18.576;2022-07-23T02:09:07;20.77;;;12.47;;
72119;SDS011;59993;53.052;18.576;2022-07-23T02:11:33;19.80;;;12.27;;
72119;SDS011;59993;53.052;18.576;2022-07-23T02:13:58;19.42;;;13.13;;
72119;SDS011;59993;53.052;18.576;2022-07-23T02:16:24;17.43;;;10.80;;
72119;SDS011;59993;53.052;18.576;2022-07-23T02:18:49;18.93;;;11.97;;
72119;SDS011;59993;53.052;18.576;2022-07-23T02:21:15;17.53;;;12.57;;
72119;SDS011;59993;53.052;18.576;2022-07-23T02:23:40;20.77;;;12.00;;
72119;SDS011;59993;53.052;18.576;2022-07-23T02:26:06;19.93;;;13.23;;
72119;SDS011;59993;53.052;18.576;2022-07-23T02:28:31;20.83;;;13.40;;
72119;SDS011;59993;53.052;18.576;2022-07-23T02:30:57;21.15;;;12.05;;
72119;SDS011;59993;53.052;18.576;2022-07-23T02:33:22;22.87;;;14.30;;
72119;SDS011;59993;53.052;18.576;2022-07-23T02:35:47;18.37;;;11.93;;
72119;SDS011;59993;53.052;18.576;2022-07-23T02:38:13;21.58;;;13.02;;
72119;SDS011;59993;53.052;18.576;2022-07-23T02:40:38;19.13;;;11.57;;
72119;SDS011;59993;53.052;18.576;2022-07-23T02:43:04;18.33;;;12.27;;
72119;SDS011;59993;53.052;18.576;2022-07-23T02:45:29;23.23;;;12.67;;
72119;SDS011;59993;53.052;18.576;2022-07-23T02:47:55;19.50;;;13.00;;
72119;SDS011;59993;53.052;18.576;2022-07-23T02:50:20;21.93;;;12.43;;
72119;SDS011;59993;53.052;18.576;2022-07-23T02:52:46;19.05;;;12.00;;
72119;SDS011;59993;53.052;18.576;2022-07-23T02:55:11;17.37;;;12.10;;
72119;SDS011;59993;53.052;18.576;2022-07-23T02:57:37;22.87;;;13.07;;
72119;SDS011;59993;53.052;18.576;2022-07-23T03:00:04;20.42;;;12.10;;
72119;SDS011;59993;53.052;18.576;2022-07-23T03:02:31;18.97;;;10.73;;
72119;SDS011;59993;53.052;18.576;2022-07-23T03:04:56;22.25;;;12.27;;
72119;SDS011;59993;53.052;18.576;2022-07-23T03:07:22;22.03;;;11.83;;
72119;SDS011;59993;53.052;18.576;2022-07-23T03:09:47;20.37;;;10.00;;
72119;SDS011;59993;53.052;18.576;2022-07-23T03:12:13;21.33;;;11.90;;
72119;SDS011;59993;53.052;18.576;2022-07-23T03:14:38;20.13;;;11.17;;
72119;SDS011;59993;53.052;18.576;2022-07-23T03:17:04;17.75;;;11.13;;
72119;SDS011;59993;53.052;18.576;2022-07-23T03:19:30;21.23;;;10.47;;
72119;SDS011;59993;53.052;18.576;2022-07-23T03:21:55;18.80;;;10.90;;
72119;SDS011;59993;53.052;18.576;2022-07-23T03:24:21;19.10;;;11.40;;
72119;SDS011;59993;53.052;18.576;2022-07-23T03:26:48;18.73;;;11.65;;
72119;SDS011;59993;53.052;18.576;2022-07-23T03:29:14;17.25;;;11.40;;
72119;SDS011;59993;53.052;18.576;2022-07-23T03:31:40;19.10;;;11.80;;
72119;SDS011;59993;53.052;18.576;2022-07-23T03:34:05;19.47;;;11.80;;
72119;SDS011;59993;53.052;18.576;2022-07-23T03:36:31;19.30;;;11.43;;
72119;SDS011;59993;53.052;18.576;2022-07-23T03:38:56;21.05;;;11.98;;
72119;SDS011;59993;53.052;18.576;2022-07-23T03:41:22;19.67;;;11.60;;
72119;SDS011;59993;53.052;18.576;2022-07-23T03:43:47;18.20;;;11.73;;
72119;SDS011;59993;53.052;18.576;2022-07-23T03:46:13;21.70;;;12.43;;
72119;SDS011;59993;53.052;18.576;2022-07-23T03:48:38;20.43;;;12.07;;
72119;SDS011;59993;53.052;18.576;2022-07-23T03:51:03;18.03;;;11.67;;
72119;SDS011;59993;53.052;18.576;2022-07-23T03:53:29;19.88;;;11.45;;
72119;SDS011;59993;53.052;18.576;2022-07-23T03:55:55;20.13;;;11.33;;
72119;SDS011;59993;53.052;18.576;2022-07-23T03:58:20;23.00;;;13.73;;
72119;SDS011;59993;53.052;18.576;2022-07-23T04:00:46;20.85;;;12.25;;
72119;SDS011;59993;53.052;18.576;2022-07-23T04:03:11;18.13;;;12.40;;
72119;SDS011;59993;53.052;18.576;2022-07-23T04:05:37;23.83;;;12.87;;
72119;SDS011;59993;53.052;18.576;2022-07-23T04:08:02;20.42;;;12.68;;
72119;SDS011;59993;53.052;18.576;2022-07-23T04:10:28;21.07;;;12.83;;
72119;SDS011;59993;53.052;18.576;2022-07-23T04:12:53;21.50;;;13.07;;
72119;SDS011;59993;53.052;18.576;2022-07-23T04:15:19;22.80;;;13.30;;
72119;SDS011;59993;53.052;18.576;2022-07-23T04:17:44;20.47;;;13.70;;
72119;SDS011;59993;53.052;18.576;2022-07-23T04:20:11;21.20;;;14.05;;
72119;SDS011;59993;53.052;18.576;2022-07-23T04:22:37;20.27;;;13.50;;
72119;SDS011;59993;53.052;18.576;2022-07-23T04:25:03;19.50;;;12.43;;
72119;SDS011;59993;53.052;18.576;2022-07-23T04:27:29;22.58;;;13.07;;
72119;SDS011;59993;53.052;18.576;2022-07-23T04:29:55;19.60;;;13.10;;
72119;SDS011;59993;53.052;18.576;2022-07-23T04:32:20;25.70;;;15.70;;
72119;SDS011;59993;53.052;18.576;2022-07-23T04:34:46;25.00;;;14.30;;
72119;SDS011;59993;53.052;18.576;2022-07-23T04:37:11;25.50;;;14.90;;
72119;SDS011;59993;53.052;18.576;2022-07-23T04:39:37;31.43;;;16.63;;
72119;SDS011;59993;53.052;18.576;2022-07-23T04:42:02;28.63;;;16.07;;
72119;SDS011;59993;53.052;18.576;2022-07-23T04:44:28;26.90;;;16.27;;
72119;SDS011;59993;53.052;18.576;2022-07-23T04:46:53;26.95;;;14.82;;
72119;SDS011;59993;53.052;18.576;2022-07-23T04:49:19;27.67;;;15.70;;
72119;SDS011;59993;53.052;18.576;2022-07-23T04:51:44;26.48;;;15.85;;
72119;SDS011;59993;53.052;18.576;2022-07-23T04:54:10;27.13;;;15.27;;
72119;SDS011;59993;53.052;18.576;2022-07-23T04:56:35;26.03;;;13.50;;
72119;SDS011;59993;53.052;18.576;2022-07-23T04:59:01;22.70;;;13.33;;
72119;SDS011;59993;53.052;18.576;2022-07-23T05:01:26;22.47;;;13.20;;
72119;SDS011;59993;53.052;18.576;2022-07-23T05:03:52;24.37;;;14.43;;
72119;SDS011;59993;53.052;18.576;2022-07-23T05:06:18;22.48;;;13.02;;
72119;SDS011;59993;53.052;18.576;2022-07-23T05:08:43;22.47;;;12.47;;
72119;SDS011;59993;53.052;18.576;2022-07-23T05:11:09;21.80;;;13.57;;
72119;SDS011;59993;53.052;18.576;2022-07-23T05:13:34;24.85;;;13.75;;
72119;SDS011;59993;53.052;18.576;2022-07-23T05:15:59;21.43;;;12.10;;
72119;SDS011;59993;53.052;18.576;2022-07-23T05:18:25;19.77;;;13.10;;
72119;SDS011;59993;53.052;18.576;2022-07-23T05:20:50;19.83;;;12.45;;
72119;SDS011;59993;53.052;18.576;2022-07-23T05:23:16;23.17;;;12.83;;
72119;SDS011;59993;53.052;18.576;2022-07-23T05:25:41;23.90;;;13.53;;
72119;SDS011;59993;53.052;18.576;2022-07-23T05:28:07;21.08;;;13.50;;
72119;SDS011;59993;53.052;18.576;2022-07-23T05:30:32;22.67;;;12.53;;
72119;SDS011;59993;53.052;18.576;2022-07-23T05:32:58;26.77;;;14.00;;
72119;SDS011;59993;53.052;18.576;2022-07-23T05:35:23;17.37;;;13.67;;
72119;SDS011;59993;53.052;18.576;2022-07-23T05:37:49;19.80;;;12.02;;
72119;SDS011;59993;53.052;18.576;2022-07-23T05:40:14;22.47;;;13.50;;
72119;SDS011;59993;53.052;18.576;2022-07-23T05:42:40;26.88;;;14.43;;
72119;SDS011;59993;53.052;18.576;2022-07-23T05:45:07;21.97;;;14.47;;
72119;SDS011;59993;53.052;18.576;2022-07-23T05:47:43;24.38;;;15.27;;
72119;SDS011;59993;53.052;18.576;2022-07-23T05:50:10;21.60;;;12.57;;
72119;SDS011;59993;53.052;18.576;2022-07-23T05:52:36;20.00;;;12.25;;
72119;SDS011;59993;53.052;18.576;2022-07-23T05:55:02;22.27;;;14.10;;
72119;SDS011;59993;53.052;18.576;2022-07-23T05:57:27;20.20;;;12.93;;
72119;SDS011;59993;53.052;18.576;2022-07-23T05:59:53;26.43;;;14.43;;
72119;SDS011;59993;53.052;18.576;2022-07-23T06:02:18;22.23;;;14.30;;
72119;SDS011;59993;53.052;18.576;2022-07-23T06:04:43;26.23;;;15.20;;
72119;SDS011;59993;53.052;18.576;2022-07-23T06:07:09;20.80;;;13.90;;
72119;SDS011;59993;53.052;18.576;2022-07-23T06:09:34;23.83;;;14.73;;
72119;SDS011;59993;53.052;18.576;2022-07-23T06:12:00;25.57;;;14.40;;
72119;SDS011;59993;53.052;18.576;2022-07-23T06:14:25;25.83;;;14.37;;
72119;SDS011;59993;53.052;18.576;2022-07-23T06:16:51;20.58;;;12.15;;
72119;SDS011;59993;53.052;18.576;2022-07-23T06:19:16;20.37;;;14.43;;
72119;SDS011;59993;53.052;18.576;2022-07-23T06:21:42;16.83;;;11.10;;
72119;SDS011;59993;53.052;18.576;2022-07-23T06:24:07;12.77;;;9.52;;
72119;SDS011;59993;53.052;18.576;2022-07-23T06:26:33;15.93;;;9.80;;
72119;SDS011;59993;53.052;18.576;2022-07-23T06:28:59;18.13;;;10.05;;
72119;SDS011;59993;53.052;18.576;2022-07-23T06:31:24;13.20;;;9.10;;
72119;SDS011;59993;53.052;18.576;2022-07-23T06:33:50;12.60;;;8.67;;
72119;SDS011;59993;53.052;18.576;2022-07-23T06:36:15;12.57;;;8.57;;
72119;SDS011;59993;53.052;18.576;2022-07-23T06:38:41;14.60;;;9.57;;
72119;SDS011;59993;53.052;18.576;2022-07-23T06:41:06;13.13;;;8.73;;
72119;SDS011;59993;53.052;18.576;2022-07-23T06:43:32;12.20;;;9.13;;
72119;SDS011;59993;53.052;18.576;2022-07-23T06:45:57;11.40;;;8.23;;
72119;SDS011;59993;53.052;18.576;2022-07-23T06:48:23;14.10;;;8.97;;
72119;SDS011;59993;53.052;18.576;2022-07-23T06:50:48;14.73;;;8.52;;
72119;SDS011;59993;53.052;18.576;2022-07-23T06:53:13;11.80;;;7.97;;
72119;SDS011;59993;53.052;18.576;2022-07-23T06:55:39;10.63;;;7.93;;
72119;SDS011;59993;53.052;18.576;2022-07-23T06:58:05;8.87;;;6.97;;
72119;SDS011;59993;53.052;18.576;2022-07-23T07:00:30;8.70;;;7.15;;
72119;SDS011;59993;53.052;18.576;2022-07-23T07:02:57;11.02;;;6.93;;
72119;SDS011;59993;53.052;18.576;2022-07-23T07:05:24;10.80;;;6.47;;
72119;SDS011;59993;53.052;18.576;2022-07-23T07:07:52;7.90;;;6.63;;
72119;SDS011;59993;53.052;18.576;2022-07-23T07:10:19;6.20;;;5.25;;
72119;SDS011;59993;53.052;18.576;2022-07-23T07:12:44;8.20;;;5.97;;
72119;SDS011;59993;53.052;18.576;2022-07-23T07:15:10;10.00;;;5.15;;
72119;SDS011;59993;53.052;18.576;2022-07-23T07:17:36;6.57;;;4.93;;
72119;SDS011;59993;53.052;18.576;2022-07-23T07:20:02;8.40;;;6.63;;
72119;SDS011;59993;53.052;18.576;2022-07-23T07:22:27;8.30;;;6.70;;
72119;SDS011;59993;53.052;18.576;2022-07-23T07:24:53;10.50;;;6.40;;
72119;SDS011;59993;53.052;18.576;2022-07-23T07:27:18;7.47;;;6.27;;
72119;SDS011;59993;53.052;18.576;2022-07-23T07:29:44;6.57;;;5.70;;
72119;SDS011;59993;53.052;18.576;2022-07-23T07:32:09;8.80;;;5.95;;
72119;SDS011;59993;53.052;18.576;2022-07-23T07:34:35;10.07;;;7.20;;
72119;SDS011;59993;53.052;18.576;2022-07-23T07:37:00;8.07;;;5.83;;
72119;SDS011;59993;53.052;18.576;2022-07-23T07:39:25;12.50;;;8.00;;
72119;SDS011;59993;53.052;18.576;2022-07-23T07:41:51;8.05;;;6.47;;
72119;SDS011;59993;53.052;18.576;2022-07-23T07:44:16;7.07;;;6.20;;
72119;SDS011;59993;53.052;18.576;2022-07-23T07:46:42;6.33;;;5.30;;
72119;SDS011;59993;53.052;18.576;2022-07-23T07:49:07;7.50;;;4.85;;
72119;SDS011;59993;53.052;18.576;2022-07-23T07:51:33;5.37;;;4.13;;
72119;SDS011;59993;53.052;18.576;2022-07-23T07:53:59;4.43;;;3.33;;
72119;SDS011;59993;53.052;18.576;2022-07-23T07:56:26;4.85;;;3.90;;
72119;SDS011;59993;53.052;18.576;2022-07-23T07:58:51;6.15;;;5.13;;
72119;SDS011;59993;53.052;18.576;2022-07-23T08:01:17;7.03;;;5.97;;
72119;SDS011;59993;53.052;18.576;2022-07-23T08:03:44;5.78;;;4.80;;
72119;SDS011;59993;53.052;18.576;2022-07-23T08:06:09;6.90;;;5.10;;
72119;SDS011;59993;53.052;18.576;2022-07-23T08:08:35;7.35;;;4.55;;
72119;SDS011;59993;53.052;18.576;2022-07-23T08:11:00;5.60;;;4.67;;
72119;SDS011;59993;53.052;18.576;2022-07-23T08:13:26;9.17;;;5.03;;
72119;SDS011;59993;53.052;18.576;2022-07-23T08:15:51;6.72;;;4.60;;
72119;SDS011;59993;53.052;18.576;2022-07-23T08:18:18;5.67;;;5.07;;
72119;SDS011;59993;53.052;18.576;2022-07-23T08:20:43;7.07;;;5.32;;
72119;SDS011;59993;53.052;18.576;2022-07-23T08:23:09;5.90;;;4.00;;
72119;SDS011;59993;53.052;18.576;2022-07-23T08:25:38;8.00;;;5.72;;
72119;SDS011;59993;53.052;18.576;2022-07-23T08:28:07;8.32;;;5.18;;
72119;SDS011;59993;53.052;18.576;2022-07-23T08:30:37;4.80;;;3.73;;
72119;SDS011;59993;53.052;18.576;2022-07-23T08:33:04;4.55;;;3.92;;
72119;SDS011;59993;53.052;18.576;2022-07-23T08:35:32;6.85;;;5.00;;
72119;SDS011;59993;53.052;18.576;2022-07-23T08:38:01;5.82;;;5.22;;
72119;SDS011;59993;53.052;18.576;2022-07-23T08:40:29;6.65;;;5.00;;
72119;SDS011;59993;53.052;18.576;2022-07-23T08:42:56;7.80;;;5.50;;
72119;SDS011;59993;53.052;18.576;2022-07-23T08:45:22;7.72;;;5.43;;
72119;SDS011;59993;53.052;18.576;2022-07-23T08:47:49;7.40;;;5.30;;
72119;SDS011;59993;53.052;18.576;2022-07-23T08:50:16;6.53;;;5.70;;
72119;SDS011;59993;53.052;18.576;2022-07-23T08:52:42;7.07;;;5.68;;
72119;SDS011;59993;53.052;18.576;2022-07-23T08:55:07;9.63;;;5.93;;
72119;SDS011;59993;53.052;18.576;2022-07-23T08:57:33;6.55;;;5.68;;
72119;SDS011;59993;53.052;18.576;2022-07-23T08:59:59;6.23;;;5.53;;
72119;SDS011;59993;53.052;18.576;2022-07-23T09:02:25;8.52;;;5.75;;
72119;SDS011;59993;53.052;18.576;2022-07-23T09:04:50;6.93;;;5.33;;
72119;SDS011;59993;53.052;18.576;2022-07-23T09:07:15;6.00;;;5.40;;
72119;SDS011;59993;53.052;18.576;2022-07-23T09:09:41;5.93;;;5.32;;
72119;SDS011;59993;53.052;18.576;2022-07-23T09:12:07;7.53;;;5.83;;
72119;SDS011;59993;53.052;18.576;2022-07-23T09:14:38;7.20;;;5.85;;
72119;SDS011;59993;53.052;18.576;2022-07-23T09:17:13;7.70;;;5.30;;
72119;SDS011;59993;53.052;18.576;2022-07-23T09:19:43;7.15;;;5.13;;
72119;SDS011;59993;53.052;18.576;2022-07-23T09:22:19;6.72;;;4.95;;
72119;SDS011;59993;53.052;18.576;2022-07-23T09:30:18;7.50;;;6.10;;
72119;SDS011;59993;53.052;18.576;2022-07-23T09:35:45;6.82;;;6.13;;
72119;SDS011;59993;53.052;18.576;2022-07-23T09:38:22;7.45;;;5.50;;
72119;SDS011;59993;53.052;18.576;2022-07-23T09:43:38;5.43;;;4.60;;
72119;SDS011;59993;53.052;18.576;2022-07-23T09:46:22;6.13;;;4.80;;
72119;SDS011;59993;53.052;18.576;2022-07-23T09:48:50;6.47;;;5.40;;
72119;SDS011;59993;53.052;18.576;2022-07-23T09:51:17;4.70;;;4.20;;
72119;SDS011;59993;53.052;18.576;2022-07-23T09:54:01;6.78;;;5.28;;
72119;SDS011;59993;53.052;18.576;2022-07-23T09:56:27;6.38;;;4.90;;
72119;SDS011;59993;53.052;18.576;2022-07-23T09:58:53;5.38;;;4.85;;
72119;SDS011;59993;53.052;18.576;2022-07-23T10:01:36;8.10;;;5.30;;
72119;SDS011;59993;53.052;18.576;2022-07-23T10:04:03;6.07;;;4.45;;
72119;SDS011;59993;53.052;18.576;2022-07-23T10:06:30;4.85;;;4.35;;
72119;SDS011;59993;53.052;18.576;2022-07-23T10:08:56;6.40;;;5.75;;
72119;SDS011;59993;53.052;18.576;2022-07-23T10:11:24;4.37;;;3.57;;
72119;SDS011;59993;53.052;18.576;2022-07-23T10:13:52;5.13;;;4.47;;
72119;SDS011;59993;53.052;18.576;2022-07-23T10:16:23;6.32;;;5.30;;
72119;SDS011;59993;53.052;18.576;2022-07-23T10:18:48;7.70;;;5.20;;
72119;SDS011;59993;53.052;18.576;2022-07-23T10:21:16;6.10;;;4.70;;
72119;SDS011;59993;53.052;18.576;2022-07-23T10:23:50;5.80;;;5.20;;
72119;SDS011;59993;53.052;18.576;2022-07-23T10:26:48;9.18;;;5.90;;
72119;SDS011;59993;53.052;18.576;2022-07-23T10:37:38;6.28;;;5.55;;
72119;SDS011;59993;53.052;18.576;2022-07-23T10:42:52;6.73;;;5.50;;
72119;SDS011;59993;53.052;18.576;2022-07-23T10:48:18;11.40;;;6.55;;
72119;SDS011;59993;53.052;18.576;2022-07-23T10:56:16;9.60;;;7.07;;
72119;SDS011;59993;53.052;18.576;2022-07-23T10:59:04;9.55;;;7.65;;
72119;SDS011;59993;53.052;18.576;2022-07-23T11:01:37;12.05;;;7.50;;
72119;SDS011;59993;53.052;18.576;2022-07-23T11:04:04;10.35;;;7.35;;
72119;SDS011;59993;53.052;18.576;2022-07-23T11:17:30;11.75;;;8.70;;
72119;SDS011;59993;53.052;18.576;2022-07-23T11:22:36;10.43;;;8.57;;
72119;SDS011;59993;53.052;18.576;2022-07-23T11:25:11;13.43;;;8.77;;
72119;SDS011;59993;53.052;18.576;2022-07-23T11:27:39;14.13;;;8.98;;
72119;SDS011;59993;53.052;18.576;2022-07-23T11:30:10;12.70;;;8.77;;
72119;SDS011;59993;53.052;18.576;2022-07-23T11:35:33;13.87;;;9.43;;
72119;SDS011;59993;53.052;18.576;2022-07-23T11:38:19;12.88;;;8.45;;
72119;SDS011;59993;53.052;18.576;2022-07-23T11:40:50;12.93;;;9.00;;
72119;SDS011;59993;53.052;18.576;2022-07-23T11:43:17;14.90;;;9.48;;
72119;SDS011;59993;53.052;18.576;2022-07-23T11:45:45;13.75;;;8.63;;
72119;SDS011;59993;53.052;18.576;2022-07-23T11:48:19;7.63;;;5.23;;
72119;SDS011;59993;53.052;18.576;2022-07-23T11:50:49;10.98;;;6.80;;
72119;SDS011;59993;53.052;18.576;2022-07-23T11:53:26;9.88;;;7.35;;
72119;SDS011;59993;53.052;18.576;2022-07-23T11:56:05;11.45;;;8.38;;
72119;SDS011;59993;53.052;18.576;2022-07-23T11:58:33;11.60;;;8.00;;
72119;SDS011;59993;53.052;18.576;2022-07-23T12:00:59;13.97;;;8.83;;
72119;SDS011;59993;53.052;18.576;2022-07-23T12:03:25;11.90;;;7.53;;
72119;SDS011;59993;53.052;18.576;2022-07-23T12:05:55;12.50;;;7.93;;
72119;SDS011;59993;53.052;18.576;2022-07-23T12:08:24;14.77;;;8.40;;
72119;SDS011;59993;53.052;18.576;2022-07-23T12:10:50;13.98;;;7.68;;
72119;SDS011;59993;53.052;18.576;2022-07-23T12:13:17;12.97;;;7.50;;
72119;SDS011;59993;53.052;18.576;2022-07-23T12:15:45;16.55;;;9.43;;
72119;SDS011;59993;53.052;18.576;2022-07-23T12:18:16;9.98;;;7.38;;
72119;SDS011;59993;53.052;18.576;2022-07-23T12:20:51;10.20;;;7.13;;
72119;SDS011;59993;53.052;18.576;2022-07-23T12:23:19;11.93;;;9.00;;
72119;SDS011;59993;53.052;18.576;2022-07-23T12:25:47;11.60;;;8.13;;
72119;SDS011;59993;53.052;18.576;2022-07-23T12:28:15;12.98;;;8.15;;
72119;SDS011;59993;53.052;18.576;2022-07-23T12:30:44;10.55;;;7.47;;
72119;SDS011;59993;53.052;18.576;2022-07-23T12:33:12;11.63;;;7.97;;
72119;SDS011;59993;53.052;18.576;2022-07-23T12:35:43;12.47;;;8.53;;
72119;SDS011;59993;53.052;18.576;2022-07-23T12:38:20;11.68;;;8.48;;
72119;SDS011;59993;53.052;18.576;2022-07-23T12:43:26;13.27;;;8.57;;
72119;SDS011;59993;53.052;18.576;2022-07-23T12:46:05;12.65;;;8.50;;
72119;SDS011;59993;53.052;18.576;2022-07-23T12:48:35;11.47;;;8.70;;
72119;SDS011;59993;53.052;18.576;2022-07-23T12:51:08;12.88;;;8.93;;
72119;SDS011;59993;53.052;18.576;2022-07-23T12:53:40;12.38;;;8.68;;
72119;SDS011;59993;53.052;18.576;2022-07-23T12:56:12;12.45;;;9.35;;
72119;SDS011;59993;53.052;18.576;2022-07-23T13:01:23;13.73;;;9.47;;
72119;SDS011;59993;53.052;18.576;2022-07-23T13:04:03;12.80;;;8.88;;
72119;SDS011;59993;53.052;18.576;2022-07-23T13:06:58;12.48;;;9.07;;
72119;SDS011;59993;53.052;18.576;2022-07-23T13:09:26;11.20;;;9.48;;
72119;SDS011;59993;53.052;18.576;2022-07-23T13:11:54;14.95;;;10.48;;
72119;SDS011;59993;53.052;18.576;2022-07-23T13:14:21;17.73;;;9.97;;
72119;SDS011;59993;53.052;18.576;2022-07-23T13:16:48;13.80;;;8.80;;
72119;SDS011;59993;53.052;18.576;2022-07-23T13:19:15;15.32;;;11.10;;
72119;SDS011;59993;53.052;18.576;2022-07-23T13:21:41;14.50;;;10.77;;
72119;SDS011;59993;53.052;18.576;2022-07-23T13:24:08;16.50;;;10.80;;
72119;SDS011;59993;53.052;18.576;2022-07-23T13:26:34;15.23;;;10.93;;
72119;SDS011;59993;53.052;18.576;2022-07-23T13:29:00;13.95;;;9.88;;
72119;SDS011;59993;53.052;18.576;2022-07-23T13:31:25;15.83;;;9.33;;
72119;SDS011;59993;53.052;18.576;2022-07-23T13:33:51;15.10;;;11.33;;
72119;SDS011;59993;53.052;18.576;2022-07-23T13:36:16;17.23;;;11.35;;
72119;SDS011;59993;53.052;18.576;2022-07-23T13:38:42;13.33;;;9.73;;
72119;SDS011;59993;53.052;18.576;2022-07-23T13:41:08;15.65;;;11.30;;
72119;SDS011;59993;53.052;18.576;2022-07-23T13:43:33;16.80;;;10.37;;
72119;SDS011;59993;53.052;18.576;2022-07-23T13:45:59;12.40;;;9.67;;
72119;SDS011;59993;53.052;18.576;2022-07-23T13:48:24;12.95;;;9.70;;
72119;SDS011;59993;53.052;18.576;2022-07-23T13:50:50;11.80;;;7.00;;
72119;SDS011;59993;53.052;18.576;2022-07-23T13:53:17;12.45;;;7.30;;
72119;SDS011;59993;53.052;18.576;2022-07-23T13:55:45;12.77;;;7.63;;
72119;SDS011;59993;53.052;18.576;2022-07-23T13:58:12;13.82;;;7.38;;
72119;SDS011;59993;53.052;18.576;2022-07-23T14:00:39;11.20;;;8.38;;
72119;SDS011;59993;53.052;18.576;2022-07-23T14:03:07;12.88;;;7.88;;
72119;SDS011;59993;53.052;18.576;2022-07-23T14:05:32;10.13;;;8.17;;
72119;SDS011;59993;53.052;18.576;2022-07-23T14:07:58;12.65;;;7.80;;
72119;SDS011;59993;53.052;18.576;2022-07-23T14:10:24;11.17;;;6.90;;
72119;SDS011;59993;53.052;18.576;2022-07-23T14:12:50;10.07;;;7.15;;
72119;SDS011;59993;53.052;18.576;2022-07-23T14:15:18;12.75;;;7.32;;
72119;SDS011;59993;53.052;18.576;2022-07-23T14:17:44;8.82;;;7.03;;
72119;SDS011;59993;53.052;18.576;2022-07-23T14:20:11;8.80;;;6.77;;
72119;SDS011;59993;53.052;18.576;2022-07-23T14:22:37;9.60;;;7.05;;
72119;SDS011;59993;53.052;18.576;2022-07-23T14:25:03;8.77;;;6.88;;
72119;SDS011;59993;53.052;18.576;2022-07-23T14:27:30;9.30;;;7.80;;
72119;SDS011;59993;53.052;18.576;2022-07-23T14:29:55;10.25;;;7.65;;
72119;SDS011;59993;53.052;18.576;2022-07-23T14:32:21;10.97;;;7.80;;
72119;SDS011;59993;53.052;18.576;2022-07-23T14:34:47;11.35;;;8.23;;
72119;SDS011;59993;53.052;18.576;2022-07-23T14:37:14;12.50;;;7.90;;
72119;SDS011;59993;53.052;18.576;2022-07-23T14:39:40;10.48;;;7.75;;
72119;SDS011;59993;53.052;18.576;2022-07-23T14:42:07;11.02;;;7.47;;
72119;SDS011;59993;53.052;18.576;2022-07-23T14:44:33;8.37;;;6.67;;
72119;SDS011;59993;53.052;18.576;2022-07-23T14:47:00;10.30;;;7.93;;
72119;SDS011;59993;53.052;18.576;2022-07-23T14:49:29;8.65;;;7.32;;
72119;SDS011;59993;53.052;18.576;2022-07-23T14:51:55;13.45;;;7.90;;
72119;SDS011;59993;53.052;18.576;2022-07-23T14:54:20;9.80;;;6.43;;
72119;SDS011;59993;53.052;18.576;2022-07-23T14:56:46;10.52;;;6.65;;
72119;SDS011;59993;53.052;18.576;2022-07-23T14:59:12;10.03;;;7.50;;
72119;SDS011;59993;53.052;18.576;2022-07-23T15:01:38;11.05;;;7.88;;
72119;SDS011;59993;53.052;18.576;2022-07-23T15:04:04;10.00;;;7.80;;
72119;SDS011;59993;53.052;18.576;2022-07-23T15:06:31;7.60;;;6.68;;
72119;SDS011;59993;53.052;18.576;2022-07-23T15:08:57;8.10;;;6.57;;
72119;SDS011;59993;53.052;18.576;2022-07-23T15:11:22;9.87;;;6.40;;